Time;durP1;ratioP1;P1;durP2;ratioP2;P2;SDS_P1;SDS_P2;PMS_P1;PMS_P2;Temp;Humidity;BMP_temperature;BMP_pressure;BME280_temperature;BME280_humidity;BME280_pressure;Samples;Min_cycle;Max_cycle;Signal;HPM_P1;HPM_P2
2023/03/10 00:01:14;;;;;;;;;;;;;;;12.00;77.23;99339.47;5048914;28;20423;-31
2023/03/10 00:03:40;;;;;;;;;;;;;;;12.20;75.96;99342.41;5052975;28;20316;-32
2023/03/10 00:06:05;;;;;;;;;;;;;;;11.87;77.11;99343.28;5052599;28;20400;-31
2023/03/10 00:08:31;;;;;;;;;;;;;;;11.93;76.93;99341.50;5052708;28;19919;-34
2023/03/10 00:10:56;;;;;;;;;;;;;;;11.72;77.76;99351.03;5052929;28;19997;-33
2023/03/10 00:13:21;;;;;;;;;;;;;;;11.50;79.48;99351.75;5052506;28;19968;-33
2023/03/10 00:15:47;;;;;;;;;;;;;;;11.33;80.23;99350.97;5052615;28;19920;-32
2023/03/10 00:18:12;;;;;;;;;;;;;;;11.45;79.06;99347.16;5052423;28;20371;-32
2023/03/10 00:20:37;;;;;;;;;;;;;;;11.63;77.82;99346.13;5052378;28;19912;-32
2023/03/10 00:23:03;;;;;;;;;;;;;;;11.52;77.98;99352.31;5052392;28;20384;-30
2023/03/10 00:25:28;;;;;;;;;;;;;;;11.49;77.89;99352.81;5052174;28;19917;-31
2023/03/10 00:27:53;;;;;;;;;;;;;;;11.52;77.36;99349.66;5052407;28;20357;-31
2023/03/10 00:30:19;;;;;;;;;;;;;;;11.42;77.63;99347.66;5052222;28;19927;-32
2023/03/10 00:32:44;;;;;;;;;;;;;;;11.47;77.99;99352.25;5051033;28;19932;-33
2023/03/10 00:35:09;;;;;;;;;;;;;;;11.65;77.24;99352.03;5052213;28;19912;-32
2023/03/10 00:37:35;;;;;;;;;;;;;;;11.72;76.40;99337.69;5051879;28;19912;-31
2023/03/10 00:40:01;;;;;;;;;;;;;;;11.73;76.50;99325.94;5052259;28;19913;-32
2023/03/10 00:42:26;;;;;;;;;;;;;;;11.18;78.97;99319.50;5052166;28;19922;-32
2023/03/10 00:44:52;;;;;;;;;;;;;;;11.16;79.00;99318.91;5052204;28;19974;-31
2023/03/10 00:47:17;;;;;;;;;;;;;;;11.04;79.55;99314.44;5051565;28;20428;-32
2023/03/10 00:49:42;;;;;;;;;;;;;;;11.23;78.30;99323.03;5051803;28;19913;-33
2023/03/10 00:52:07;;;;;;;;;;;;;;;11.23;78.81;99331.03;5051571;28;20548;-31
2023/03/10 00:54:33;;;;;;;;;;;;;;;11.22;78.07;99320.63;5052033;28;19913;-31
2023/03/10 00:56:58;;;;;;;;;;;;;;;11.26;78.67;99316.41;5051806;28;19916;-33
2023/03/10 00:59:23;;;;;;;;;;;;;;;11.17;78.35;99324.00;5051466;28;19925;-30
2023/03/10 01:01:48;;;;;;;;;;;;;;;11.11;78.91;99319.63;5051786;28;20389;-31
2023/03/10 01:04:15;;;;;;;;;;;;;;;11.00;79.29;99323.16;5051464;28;19974;-31
2023/03/10 01:06:41;;;;;;;;;;;;;;;11.06;78.77;99323.00;5050049;28;19916;-32
2023/03/10 01:09:06;;;;;;;;;;;;;;;11.06;79.49;99327.53;5051611;28;20015;-32
2023/03/10 01:11:32;;;;;;;;;;;;;;;10.96;78.83;99333.50;5051488;28;19995;-32
2023/03/10 01:13:59;;;;;;;;;;;;;;;10.75;80.31;99326.19;5051446;28;19919;-31
2023/03/10 01:16:25;;;;;;;;;;;;;;;10.93;79.73;99323.31;5051382;28;19924;-31
2023/03/10 01:18:50;;;;;;;;;;;;;;;11.08;78.71;99336.13;5051251;28;19922;-32
2023/03/10 01:21:17;;;;;;;;;;;;;;;10.85;78.62;99332.50;5050736;28;20381;-32
2023/03/10 01:23:43;;;;;;;;;;;;;;;10.66;80.02;99341.72;5051375;28;19913;-31
2023/03/10 01:26:08;;;;;;;;;;;;;;;10.75;79.57;99337.66;5051240;28;19920;-31
2023/03/10 01:28:33;;;;;;;;;;;;;;;10.70;79.54;99334.88;5051214;28;19962;-33
2023/03/10 01:30:59;;;;;;;;;;;;;;;10.63;79.70;99323.56;5051041;28;19947;-31
2023/03/10 01:33:24;;;;;;;;;;;;;;;10.71;78.81;99325.84;5050867;28;19912;-32
2023/03/10 01:35:49;;;;;;;;;;;;;;;10.89;78.77;99329.34;5050735;28;19919;-31
2023/03/10 01:38:14;;;;;;;;;;;;;;;10.91;78.99;99329.94;5051463;28;19916;-33
2023/03/10 01:40:45;;;;;;;;;;;;;;;10.78;78.94;99331.84;5051225;28;19917;-30
2023/03/10 01:43:23;;;;;;;;;;;;;;;10.76;79.11;99327.78;5051209;28;19921;-32
2023/03/10 01:45:53;;;;;;;;;;;;;;;10.70;79.37;99334.88;5050936;28;19913;-31
2023/03/10 01:48:19;;;;;;;;;;;;;;;10.51;79.86;99330.78;5050559;28;20333;-31
2023/03/10 01:50:47;;;;;;;;;;;;;;;10.42;80.59;99331.16;5051009;28;19919;-33
2023/03/10 01:53:14;;;;;;;;;;;;;;;10.38;80.93;99327.34;5050773;28;19920;-33
2023/03/10 01:55:42;;;;;;;;;;;;;;;10.26;80.76;99326.53;5050628;28;19916;-31
2023/03/10 01:58:09;;;;;;;;;;;;;;;10.21;81.17;99327.19;5050494;28;19912;-32
2023/03/10 02:00:35;;;;;;;;;;;;;;;10.25;81.14;99327.56;5050617;28;19962;-31
2023/03/10 02:03:06;;;;;;;;;;;;;;;10.27;81.06;99320.13;5050201;28;20013;-34
2023/03/10 02:05:32;;;;;;;;;;;;;;;10.26;81.44;99326.53;5050343;28;19913;-31
2023/03/10 02:07:58;;;;;;;;;;;;;;;10.31;81.24;99329.31;5050193;28;20300;-33
2023/03/10 02:10:25;;;;;;;;;;;;;;;10.16;81.92;99318.31;5050398;28;19917;-31
2023/03/10 02:12:50;;;;;;;;;;;;;;;10.09;82.17;99312.28;5050314;28;19913;-32
2023/03/10 02:15:15;;;;;;;;;;;;;;;9.88;82.36;99305.72;5049814;28;19981;-31
2023/03/10 02:17:41;;;;;;;;;;;;;;;9.92;82.23;99310.34;5049816;28;19916;-32
2023/03/10 02:20:12;;;;;;;;;;;;;;;9.69;82.45;99319.16;5048860;28;19919;-31
2023/03/10 02:22:38;;;;;;;;;;;;;;;9.70;83.10;99315.44;5050001;28;20324;-33
2023/03/10 02:25:12;;;;;;;;;;;;;;;9.76;83.36;99313.72;5050031;28;19913;-32
2023/03/10 02:27:38;;;;;;;;;;;;;;;9.88;83.19;99314.50;5049903;28;19963;-31
2023/03/10 02:30:04;;;;;;;;;;;;;;;10.02;82.11;99329.22;5049776;28;19940;-32
2023/03/10 02:32:31;;;;;;;;;;;;;;;10.16;81.21;99328.97;5050109;28;19922;-32
2023/03/10 02:34:56;;;;;;;;;;;;;;;10.26;80.79;99329.19;5049833;28;19913;-32
2023/03/10 02:37:23;;;;;;;;;;;;;;;10.09;81.13;99329.06;5049761;28;19966;-31
2023/03/10 02:39:49;;;;;;;;;;;;;;;9.96;81.58;99329.34;5049513;28;20381;-32
2023/03/10 02:42:14;;;;;;;;;;;;;;;10.10;80.54;99329.91;5048132;28;19923;-31
2023/03/10 02:44:39;;;;;;;;;;;;;;;10.21;80.03;99339.72;5049709;28;20343;-31
2023/03/10 02:47:05;;;;;;;;;;;;;;;10.11;80.62;99342.16;5049496;28;19916;-31
2023/03/10 02:49:31;;;;;;;;;;;;;;;10.10;80.49;99335.25;5050080;28;19916;-32
2023/03/10 02:51:58;;;;;;;;;;;;;;;10.00;80.45;99331.28;5049689;28;19978;-33
2023/03/10 02:54:23;;;;;;;;;;;;;;;10.13;79.82;99334.75;5049722;28;19913;-32
2023/03/10 02:56:48;;;;;;;;;;;;;;;10.16;79.94;99328.97;5049415;28;19917;-31
2023/03/10 02:59:15;;;;;;;;;;;;;;;10.19;79.69;99349.81;5049249;28;19917;-31
2023/03/10 03:01:40;;;;;;;;;;;;;;;10.23;79.97;99335.78;5049621;28;19916;-32
2023/03/10 03:04:06;;;;;;;;;;;;;;;9.71;82.34;99350.88;5049656;28;19916;-32
2023/03/10 03:06:31;;;;;;;;;;;;;;;9.67;81.65;99361.16;5049410;28;20372;-32
2023/03/10 03:08:58;;;;;;;;;;;;;;;9.36;81.11;99362.28;5049364;28;20310;-32
2023/03/10 03:11:24;;;;;;;;;;;;;;;9.53;81.43;99365.88;5049272;28;19913;-32
2023/03/10 03:13:49;;;;;;;;;;;;;;;9.55;81.93;99355.03;5049116;28;19923;-32
2023/03/10 03:16:15;;;;;;;;;;;;;;;9.59;81.60;99362.31;5049993;28;20286;-31
2023/03/10 03:18:40;;;;;;;;;;;;;;;9.77;80.01;99363.28;5049221;28;19985;-33
2023/03/10 03:21:07;;;;;;;;;;;;;;;9.61;80.80;99362.91;5049455;28;20273;-32
2023/03/10 03:23:33;;;;;;;;;;;;;;;9.47;81.36;99364.16;5049148;28;20313;-32
2023/03/10 03:25:58;;;;;;;;;;;;;;;9.00;84.13;99358.69;5049303;28;19913;-31
2023/03/10 03:28:24;;;;;;;;;;;;;;;9.00;84.09;99348.88;5049386;28;19924;-31
2023/03/10 03:30:49;;;;;;;;;;;;;;;8.95;84.74;99350.56;5052306;28;19916;-32
2023/03/10 03:33:15;;;;;;;;;;;;;;;8.89;85.99;99359.44;5053383;28;19924;-31
2023/03/10 03:35:41;;;;;;;;;;;;;;;8.92;85.46;99356.34;5051915;28;19923;-31
2023/03/10 03:38:07;;;;;;;;;;;;;;;9.06;85.08;99349.81;5053603;28;19913;-31
2023/03/10 03:40:34;;;;;;;;;;;;;;;9.18;84.48;99347.19;5053196;28;20357;-32
2023/03/10 03:42:59;;;;;;;;;;;;;;;9.27;84.01;99342.34;5052982;28;19971;-32
2023/03/10 03:45:25;;;;;;;;;;;;;;;9.17;84.71;99337.56;5052970;28;20359;-31
2023/03/10 03:47:51;;;;;;;;;;;;;;;9.28;84.44;99322.69;5052997;28;19917;-32
2023/03/10 03:50:16;;;;;;;;;;;;;;;9.40;84.95;99312.88;5053152;28;19923;-31
2023/03/10 03:52:42;;;;;;;;;;;;;;;9.26;85.58;99320.25;5052944;28;19912;-32
2023/03/10 03:55:08;;;;;;;;;;;;;;;9.20;86.43;99314.00;5052992;28;19920;-31
2023/03/10 03:57:34;;;;;;;;;;;;;;;9.04;87.49;99314.66;5052602;28;19916;-34
2023/03/10 03:59:59;;;;;;;;;;;;;;;9.05;86.49;99318.91;5052687;28;19927;-32
2023/03/10 04:02:24;;;;;;;;;;;;;;;8.86;86.60;99320.84;5053199;28;19917;-31
2023/03/10 04:04:51;;;;;;;;;;;;;;;8.44;88.09;99305.63;5052951;28;19916;-30
2023/03/10 04:07:16;;;;;;;;;;;;;;;8.34;89.17;99321.25;5052649;28;19917;-31
2023/03/10 04:09:42;;;;;;;;;;;;;;;8.13;88.69;99327.00;5052609;28;19913;-34
2023/03/10 04:12:08;;;;;;;;;;;;;;;7.86;89.04;99329.94;5052446;28;20374;-31
2023/03/10 04:14:34;;;;;;;;;;;;;;;7.87;90.53;99338.69;5052605;28;19917;-31
2023/03/10 04:16:59;;;;;;;;;;;;;;;7.58;94.22;99336.53;5053003;28;19916;-31
2023/03/10 04:19:27;;;;;;;;;;;;;;;7.91;94.58;99339.91;5052271;28;20049;-31
2023/03/10 04:21:54;;;;;;;;;;;;;;;7.97;93.71;99344.34;5052349;28;20338;-32
2023/03/10 04:24:19;;;;;;;;;;;;;;;8.15;93.61;99349.69;5052203;28;20411;-31
2023/03/10 04:26:45;;;;;;;;;;;;;;;8.43;91.70;99343.84;5052033;28;19912;-31
2023/03/10 04:29:11;;;;;;;;;;;;;;;8.41;91.45;99345.13;5052317;28;20054;-31
2023/03/10 04:31:36;;;;;;;;;;;;;;;8.45;91.25;99341.78;5051970;28;20312;-30
2023/03/10 04:34:02;;;;;;;;;;;;;;;8.41;92.12;99339.81;5052365;28;19913;-31
2023/03/10 04:36:27;;;;;;;;;;;;;;;8.43;92.58;99337.75;5052091;28;19917;-32
2023/03/10 04:38:53;;;;;;;;;;;;;;;8.60;91.24;99337.94;5052246;28;19919;-32
2023/03/10 04:41:18;;;;;;;;;;;;;;;8.56;91.56;99342.91;5051267;28;19920;-33
2023/03/10 04:43:43;;;;;;;;;;;;;;;8.68;91.10;99347.44;5052033;28;19925;-31
2023/03/10 04:46:09;;;;;;;;;;;;;;;8.78;90.85;99351.19;5051928;28;19917;-31
2023/03/10 04:48:34;;;;;;;;;;;;;;;8.60;92.08;99351.22;5052148;28;20350;-32
2023/03/10 04:51:01;;;;;;;;;;;;;;;8.95;90.32;99346.09;5051874;28;20370;-30
2023/03/10 04:53:26;;;;;;;;;;;;;;;8.95;89.69;99354.06;5050287;28;19923;-31
2023/03/10 04:55:52;;;;;;;;;;;;;;;9.15;88.75;99351.09;5051563;28;19916;-32
2023/03/10 04:58:18;;;;;;;;;;;;;;;9.02;89.29;99345.97;5051655;28;19978;-32
2023/03/10 05:00:43;;;;;;;;;;;;;;;9.14;88.77;99352.16;5051657;28;19920;-31
2023/03/10 05:03:08;;;;;;;;;;;;;;;9.07;89.33;99353.28;5051672;28;20356;-30
2023/03/10 05:05:34;;;;;;;;;;;;;;;9.02;90.21;99348.66;5051409;28;19913;-30
2023/03/10 05:07:59;;;;;;;;;;;;;;;8.92;91.03;99346.53;5051336;28;19967;-31
2023/03/10 05:10:24;;;;;;;;;;;;;;;8.91;91.67;99347.56;5051787;28;19982;-31
2023/03/10 05:12:49;;;;;;;;;;;;;;;8.99;91.73;99343.75;5051538;28;20282;-31
2023/03/10 05:15:15;;;;;;;;;;;;;;;9.17;90.72;99338.38;5051344;28;19912;-30
2023/03/10 05:17:40;;;;;;;;;;;;;;;9.16;90.49;99335.97;5051466;28;19913;-31
2023/03/10 05:20:08;;;;;;;;;;;;;;;9.08;91.08;99342.41;5051326;28;19978;-31
2023/03/10 05:22:33;;;;;;;;;;;;;;;9.07;91.21;99339.97;5051291;28;19944;-31
2023/03/10 05:24:58;;;;;;;;;;;;;;;9.14;91.42;99338.03;5050936;28;19959;-32
2023/03/10 05:27:23;;;;;;;;;;;;;;;9.23;91.06;99334.84;5051273;28;19916;-30
2023/03/10 05:29:49;;;;;;;;;;;;;;;9.34;90.54;99338.56;5051047;28;19921;-31
2023/03/10 05:32:17;;;;;;;;;;;;;;;9.37;90.60;99338.09;5051285;28;19916;-31
2023/03/10 05:34:42;;;;;;;;;;;;;;;9.69;89.65;99323.69;5051098;28;19916;-33
2023/03/10 05:37:07;;;;;;;;;;;;;;;9.71;88.57;99332.25;5050987;28;19920;-35
2023/03/10 05:39:33;;;;;;;;;;;;;;;9.76;89.11;99321.69;5050675;28;19916;-33
2023/03/10 05:41:58;;;;;;;;;;;;;;;9.77;89.88;99326.00;5051177;28;19920;-34
2023/03/10 05:44:23;;;;;;;;;;;;;;;9.98;89.30;99330.72;5051018;28;19925;-33
2023/03/10 05:46:49;;;;;;;;;;;;;;;10.01;89.32;99321.44;5050781;28;19924;-34
2023/03/10 05:49:14;;;;;;;;;;;;;;;9.95;90.06;99333.03;5050605;28;20363;-33
2023/03/10 05:51:39;;;;;;;;;;;;;;;10.03;90.44;99336.16;5050864;28;20389;-35
2023/03/10 05:54:05;;;;;;;;;;;;;;;9.84;90.60;99343.44;5050072;28;19913;-35
2023/03/10 05:56:30;;;;;;;;;;;;;;;9.86;91.00;99345.88;5050827;28;20422;-33
2023/03/10 05:58:55;;;;;;;;;;;;;;;9.81;89.70;99348.44;5050645;28;19912;-35
2023/03/10 06:01:21;;;;;;;;;;;;;;;9.82;91.80;99342.06;5050357;28;19920;-33
2023/03/10 06:03:46;;;;;;;;;;;;;;;9.71;91.85;99348.22;5050437;28;19923;-33
2023/03/10 06:06:12;;;;;;;;;;;;;;;9.86;91.32;99340.56;5050455;28;20305;-33
2023/03/10 06:08:37;;;;;;;;;;;;;;;10.04;90.77;99345.78;5050231;28;19919;-34
2023/03/10 06:11:03;;;;;;;;;;;;;;;10.19;90.68;99345.28;5050183;28;20290;-34
2023/03/10 06:13:30;;;;;;;;;;;;;;;10.23;88.12;99345.63;5050101;28;19919;-34
2023/03/10 06:15:57;;;;;;;;;;;;;;;10.16;88.17;99339.63;5050354;28;19963;-33
2023/03/10 06:18:23;;;;;;;;;;;;;;;10.08;89.11;99332.00;5050184;28;19995;-33
2023/03/10 06:20:49;;;;;;;;;;;;;;;10.24;89.04;99342.75;5050022;28;19913;-34
2023/03/10 06:23:15;;;;;;;;;;;;;;;10.31;89.94;99339.16;5049936;28;19919;-33
2023/03/10 06:25:40;;;;;;;;;;;;;;;10.22;90.56;99339.50;5050223;28;19959;-33
2023/03/10 06:28:06;;;;;;;;;;;;;;;10.39;89.77;99352.94;5050297;28;20007;-35
2023/03/10 06:30:31;;;;;;;;;;;;;;;10.41;88.82;99348.19;5050188;28;20363;-33
2023/03/10 06:32:57;;;;;;;;;;;;;;;10.13;91.70;99350.75;5050159;28;20296;-34
2023/03/10 06:35:23;;;;;;;;;;;;;;;10.33;91.37;99351.22;5049628;28;19917;-35
2023/03/10 06:37:48;;;;;;;;;;;;;;;10.23;91.17;99348.28;5049767;28;20434;-33
2023/03/10 06:40:13;;;;;;;;;;;;;;;10.36;90.28;99349.91;5050096;28;19917;-34
2023/03/10 06:42:39;;;;;;;;;;;;;;;10.51;89.81;99354.78;5049758;28;19932;-34
2023/03/10 06:45:05;;;;;;;;;;;;;;;10.92;88.40;99352.91;5049942;28;19916;-33
2023/03/10 06:47:31;;;;;;;;;;;;;;;11.04;87.37;99351.00;5049594;28;20023;-33
2023/03/10 06:49:57;;;;;;;;;;;;;;;11.22;85.81;99348.13;5049858;28;20383;-33
2023/03/10 06:52:22;;;;;;;;;;;;;;;11.53;84.42;99361.97;5049405;28;19912;-34
2023/03/10 06:54:48;;;;;;;;;;;;;;;11.76;83.55;99358.31;5049682;28;20403;-34
2023/03/10 06:57:13;;;;;;;;;;;;;;;11.86;82.25;99353.13;5049472;28;19960;-33
2023/03/10 06:59:38;;;;;;;;;;;;;;;12.04;81.35;99365.44;5049748;28;20316;-34
2023/03/10 07:02:04;;;;;;;;;;;;;;;12.13;81.00;99357.00;5048301;28;20294;-31
2023/03/10 07:04:29;;;;;;;;;;;;;;;12.33;77.91;99351.94;5048558;28;19919;-30
2023/03/10 07:06:54;;;;;;;;;;;;;;;12.27;79.20;99344.91;5049333;28;19916;-31
2023/03/10 07:09:19;;;;;;;;;;;;;;;12.17;78.99;99352.78;5048974;28;19920;-31
2023/03/10 07:11:45;;;;;;;;;;;;;;;12.08;79.08;99352.41;5049647;28;19973;-32
2023/03/10 07:14:10;;;;;;;;;;;;;;;12.32;77.49;99350.34;5048036;28;19920;-31
2023/03/10 07:16:37;;;;;;;;;;;;;;;12.57;76.76;99357.84;5049537;28;19913;-32
2023/03/10 07:19:02;;;;;;;;;;;;;;;12.84;75.81;99360.56;5049280;28;20444;-31
2023/03/10 07:21:28;;;;;;;;;;;;;;;12.80;76.00;99351.44;5049151;28;20014;-31
2023/03/10 07:23:53;;;;;;;;;;;;;;;12.92;75.12;99337.13;5049133;28;19920;-31
2023/03/10 07:26:18;;;;;;;;;;;;;;;13.18;74.88;99349.69;5049140;28;20498;-31
2023/03/10 07:28:44;;;;;;;;;;;;;;;13.49;73.56;99347.31;5049496;28;19919;-30
2023/03/10 07:31:10;;;;;;;;;;;;;;;13.60;72.12;99349.00;5049107;28;19916;-30
2023/03/10 07:33:36;;;;;;;;;;;;;;;13.40;73.94;99338.09;5048603;28;19917;-31
2023/03/10 07:36:06;;;;;;;;;;;;;;;13.78;73.51;99349.66;5049220;28;19925;-32
2023/03/10 07:38:32;;;;;;;;;;;;;;;13.76;72.84;99341.88;5047997;28;19923;-32
2023/03/10 07:40:57;;;;;;;;;;;;;;;13.92;72.36;99332.06;5049269;28;19916;-34
2023/03/10 07:43:22;;;;;;;;;;;;;;;14.12;72.52;99335.91;5048549;28;19924;-31
2023/03/10 07:45:47;;;;;;;;;;;;;;;14.15;71.54;99340.78;5047848;28;19924;-30
2023/03/10 07:48:13;;;;;;;;;;;;;;;14.39;71.30;99349.22;5048901;28;19979;-32
2023/03/10 07:50:38;;;;;;;;;;;;;;;14.45;70.05;99346.28;5048896;28;20353;-31
2023/03/10 07:53:03;;;;;;;;;;;;;;;14.60;69.90;99339.41;5048724;28;19920;-31
2023/03/10 07:55:28;;;;;;;;;;;;;;;14.64;69.76;99340.50;5048715;28;20420;-31
2023/03/10 07:57:55;;;;;;;;;;;;;;;14.78;68.85;99341.59;5048941;28;19913;-31
2023/03/10 08:00:21;;;;;;;;;;;;;;;14.85;69.05;99346.72;5048953;28;20400;-31
2023/03/10 08:02:46;;;;;;;;;;;;;;;14.97;67.73;99344.59;5049365;28;19962;-33
2023/03/10 08:05:13;;;;;;;;;;;;;;;15.19;68.47;99341.69;5048714;28;19919;-32
2023/03/10 08:07:38;;;;;;;;;;;;;;;15.39;67.51;99334.72;5048771;28;19980;-31
2023/03/10 08:10:06;;;;;;;;;;;;;;;15.21;67.64;99334.16;5048736;28;19916;-31
2023/03/10 08:12:31;;;;;;;;;;;;;;;15.33;68.22;99327.75;5048865;28;19917;-33
2023/03/10 08:14:57;;;;;;;;;;;;;;;15.38;67.69;99331.22;5048751;28;20003;-32
2023/03/10 08:17:29;;;;;;;;;;;;;;;15.22;68.55;99335.78;5052299;28;19944;-32
2023/03/10 08:19:54;;;;;;;;;;;;;;;15.34;68.30;99326.66;5052248;28;20284;-32
2023/03/10 08:22:19;;;;;;;;;;;;;;;15.58;66.65;99327.72;5052721;28;19923;-31
2023/03/10 08:24:45;;;;;;;;;;;;;;;15.72;67.03;99325.31;5052607;28;19927;-31
2023/03/10 08:27:10;;;;;;;;;;;;;;;15.49;66.17;99323.97;5052325;28;19955;-31
2023/03/10 08:29:35;;;;;;;;;;;;;;;15.58;66.13;99303.53;5052175;28;19912;-31
2023/03/10 08:32:00;;;;;;;;;;;;;;;15.71;65.77;99304.06;5052200;28;19917;-30
2023/03/10 08:34:30;;;;;;;;;;;;;;;15.86;64.97;99306.75;5052088;28;20021;-31
2023/03/10 08:36:57;;;;;;;;;;;;;;;16.05;64.29;99296.22;5052603;28;19916;-32
2023/03/10 08:39:22;;;;;;;;;;;;;;;15.99;65.12;99295.41;5051972;28;19913;-31
2023/03/10 08:41:48;;;;;;;;;;;;;;;16.09;64.64;99299.16;5052123;28;19936;-31
2023/03/10 08:44:16;;;;;;;;;;;;;;;16.07;64.87;99297.53;5051967;28;19932;-32
2023/03/10 08:46:42;;;;;;;;;;;;;;;16.23;65.66;99294.81;5051768;28;19917;-34
2023/03/10 08:49:10;;;;;;;;;;;;;;;16.21;65.57;99286.22;5051841;28;19945;-30
2023/03/10 08:51:36;;;;;;;;;;;;;;;15.95;66.06;99278.22;5051814;28;19924;-30
2023/03/10 08:54:02;;;;;;;;;;;;;;;15.72;67.02;99270.75;5051948;28;19913;-31
2023/03/10 08:56:28;;;;;;;;;;;;;;;15.78;66.79;99275.84;5051760;28;19921;-32
2023/03/10 08:58:56;;;;;;;;;;;;;;;15.98;66.98;99266.13;5051722;28;20017;-31
2023/03/10 09:01:22;;;;;;;;;;;;;;;16.14;66.39;99269.56;5050161;28;19916;-31
2023/03/10 09:03:50;;;;;;;;;;;;;;;16.06;67.27;99262.88;5050016;28;19923;-31
2023/03/10 09:06:15;;;;;;;;;;;;;;;16.13;66.44;99262.56;5051715;28;19917;-32
2023/03/10 09:08:41;;;;;;;;;;;;;;;16.44;64.77;99269.41;5051531;28;19935;-31
2023/03/10 09:11:07;;;;;;;;;;;;;;;16.61;63.55;99265.56;5051656;28;20433;-33
2023/03/10 09:13:32;;;;;;;;;;;;;;;16.74;61.39;99269.53;5051335;28;19923;-31
2023/03/10 09:15:58;;;;;;;;;;;;;;;16.85;60.35;99263.81;5051226;28;19912;-32
2023/03/10 09:18:23;;;;;;;;;;;;;;;17.04;60.79;99255.06;5051050;28;19916;-32
2023/03/10 09:20:48;;;;;;;;;;;;;;;17.21;60.25;99247.41;5051170;28;19917;-32
2023/03/10 09:23:14;;;;;;;;;;;;;;;17.40;61.33;99238.59;5050930;28;19986;-30
2023/03/10 09:25:40;;;;;;;;;;;;;;;17.57;59.65;99225.50;5051134;28;20274;-31
2023/03/10 09:28:06;;;;;;;;;;;;;;;17.33;59.23;99220.06;5050054;28;19941;-32
2023/03/10 09:30:32;;;;;;;;;;;;;;;17.55;58.93;99206.13;5050879;28;19917;-32
2023/03/10 09:32:58;;;;;;;;;;;;;;;17.95;56.89;99203.25;5050778;28;19916;-33
2023/03/10 09:35:23;;;;;;;;;;;;;;;18.33;55.56;99204.13;5049869;28;19913;-31
2023/03/10 09:37:49;;;;;;;;;;;;;;;18.40;55.26;99204.53;5050610;28;19919;-31
2023/03/10 09:40:16;;;;;;;;;;;;;;;18.64;55.79;99201.78;5051134;28;19936;-31
2023/03/10 09:42:46;;;;;;;;;;;;;;;18.72;55.54;99200.31;5050117;28;19921;-34
2023/03/10 09:45:19;;;;;;;;;;;;;;;19.05;55.41;99189.53;5050719;28;19966;-31
2023/03/10 09:47:47;;;;;;;;;;;;;;;19.24;53.04;99195.69;5050786;28;20003;-32
2023/03/10 09:50:33;;;;;;;;;;;;;;;19.20;51.44;99194.66;5050476;28;19955;-31
2023/03/10 09:53:06;;;;;;;;;;;;;;;19.20;50.77;99191.97;5050529;28;19913;-31
2023/03/10 09:55:40;;;;;;;;;;;;;;;19.16;51.22;99182.06;5050370;28;20663;-32
2023/03/10 09:58:11;;;;;;;;;;;;;;;19.11;50.66;99174.84;5049865;28;19986;-32
2023/03/10 10:00:39;;;;;;;;;;;;;;;19.21;50.69;99158.44;5050438;28;19944;-31
2023/03/10 10:03:11;;;;;;;;;;;;;;;19.40;50.75;99154.84;5049193;28;19912;-34
2023/03/10 10:05:38;;;;;;;;;;;;;;;19.46;50.18;99146.34;5049836;28;19940;-30
2023/03/10 10:08:10;;;;;;;;;;;;;;;19.64;50.86;99147.34;5050160;28;19927;-32
2023/03/10 10:10:37;;;;;;;;;;;;;;;19.68;50.81;99144.84;5050202;28;19962;-34
2023/03/10 10:13:10;;;;;;;;;;;;;;;19.76;50.72;99129.84;5048483;28;20299;-32
2023/03/10 10:15:36;;;;;;;;;;;;;;;19.75;50.72;99137.16;5050689;28;19925;-32
2023/03/10 10:18:11;;;;;;;;;;;;;;;19.64;50.84;99130.31;5049872;28;20365;-31
2023/03/10 10:20:57;;;;;;;;;;;;;;;19.77;51.95;99118.72;5049593;28;19919;-33
2023/03/10 10:23:37;;;;;;;;;;;;;;;20.14;50.75;99118.72;5050047;28;19923;-32
2023/03/10 10:26:29;;;;;;;;;;;;;;;20.36;47.74;99121.47;5049866;28;20308;-32
2023/03/10 10:28:55;;;;;;;;;;;;;;;20.04;46.11;99108.94;5049203;28;19917;-33
2023/03/10 10:31:22;;;;;;;;;;;;;;;20.48;45.86;99100.03;5049943;28;19920;-32
2023/03/10 10:33:58;;;;;;;;;;;;;;;20.66;45.42;99102.91;5048876;28;20449;-31
2023/03/10 10:36:26;;;;;;;;;;;;;;;20.77;45.17;99090.69;5049265;28;19920;-31
2023/03/10 10:38:53;;;;;;;;;;;;;;;20.21;45.40;99089.34;5049574;28;19916;-32
2023/03/10 10:41:20;;;;;;;;;;;;;;;20.33;45.56;99084.19;5049660;28;19928;-32
2023/03/10 10:43:46;;;;;;;;;;;;;;;20.73;45.26;99086.22;5048718;28;20022;-32
2023/03/10 10:46:12;;;;;;;;;;;;;;;20.91;45.21;99078.97;5049632;28;19923;-33
2023/03/10 10:48:45;;;;;;;;;;;;;;;21.41;44.93;99073.25;5049737;28;19913;-32
2023/03/10 10:51:18;;;;;;;;;;;;;;;21.91;43.56;99081.03;5049116;28;19916;-34
2023/03/10 10:53:44;;;;;;;;;;;;;;;22.17;43.62;99061.22;5049506;28;19913;-33
2023/03/10 10:56:15;;;;;;;;;;;;;;;22.00;43.33;99065.53;5049170;28;19919;-32
2023/03/10 10:58:41;;;;;;;;;;;;;;;22.38;42.98;99062.22;5049160;28;19920;-33
2023/03/10 11:01:09;;;;;;;;;;;;;;;22.47;42.82;99051.31;5049257;28;19935;-32
2023/03/10 11:03:36;;;;;;;;;;;;;;;21.93;42.67;99035.38;5047718;28;19912;-31
2023/03/10 11:06:12;;;;;;;;;;;;;;;21.48;43.05;99022.09;5048731;28;20281;-31
2023/03/10 11:08:39;;;;;;;;;;;;;;;21.23;44.81;99002.72;5049109;28;19912;-31
2023/03/10 11:11:17;;;;;;;;;;;;;;;20.57;44.97;98991.75;5049565;28;19916;-30
2023/03/10 11:14:01;;;;;;;;;;;;;;;20.66;46.13;98991.84;5049189;28;19917;-31
2023/03/10 11:16:45;;;;;;;;;;;;;;;20.51;46.16;98981.38;5049303;28;19912;-33
2023/03/10 11:19:20;;;;;;;;;;;;;;;20.04;47.62;98969.03;5048527;28;19924;-33
2023/03/10 11:21:49;;;;;;;;;;;;;;;20.04;47.95;98957.38;5049402;28;19919;-33
2023/03/10 11:24:30;;;;;;;;;;;;;;;20.13;47.72;98954.75;5048916;28;19995;-31
2023/03/10 11:26:55;;;;;;;;;;;;;;;20.45;47.29;98935.50;5048605;28;19971;-31
2023/03/10 11:29:23;;;;;;;;;;;;;;;20.70;48.24;98924.28;5048961;28;19937;-30
2023/03/10 11:31:54;;;;;;;;;;;;;;;20.71;47.67;98926.69;5048754;28;20707;-32
2023/03/10 11:34:29;;;;;;;;;;;;;;;20.52;47.73;98928.81;5048559;28;20278;-32
2023/03/10 11:37:13;;;;;;;;;;;;;;;20.75;47.52;98921.44;5049005;28;19916;-32
2023/03/10 11:39:47;;;;;;;;;;;;;;;20.89;48.33;98922.09;5049009;28;19913;-31
2023/03/10 11:42:22;;;;;;;;;;;;;;;21.35;46.64;98922.66;5048519;28;19917;-32
2023/03/10 11:44:55;;;;;;;;;;;;;;;21.63;46.24;98918.53;5048881;28;19927;-33
2023/03/10 11:47:30;;;;;;;;;;;;;;;21.34;46.70;98907.50;5048547;28;19913;-32
2023/03/10 11:50:01;;;;;;;;;;;;;;;20.63;48.15;98898.44;5048456;28;19917;-31
2023/03/10 11:52:28;;;;;;;;;;;;;;;20.74;49.58;98898.97;5052509;28;19912;-32
2023/03/10 11:54:59;;;;;;;;;;;;;;;20.66;49.35;98886.19;5052994;28;19912;-33
2023/03/10 11:57:26;;;;;;;;;;;;;;;20.64;49.09;98888.44;5051764;28;19920;-34
2023/03/10 11:59:54;;;;;;;;;;;;;;;20.22;49.69;98887.91;5052838;28;19916;-31
2023/03/10 12:02:25;;;;;;;;;;;;;;;19.93;50.32;98872.16;5052762;28;19970;-32
2023/03/10 12:04:51;;;;;;;;;;;;;;;20.00;49.70;98867.09;5051941;28;19916;-30
2023/03/10 12:07:21;;;;;;;;;;;;;;;19.90;50.57;98876.31;5052175;28;19974;-32
2023/03/10 12:09:56;;;;;;;;;;;;;;;19.85;51.14;98865.59;5052578;28;20312;-32
2023/03/10 12:12:38;;;;;;;;;;;;;;;19.86;50.77;98870.69;5052069;28;20015;-32
2023/03/10 12:15:24;;;;;;;;;;;;;;;20.09;51.57;98865.25;5052541;28;19935;-34
2023/03/10 12:17:50;;;;;;;;;;;;;;;20.11;50.72;98854.13;5051148;28;19964;-33
2023/03/10 12:20:16;;;;;;;;;;;;;;;19.94;50.75;98858.34;5052292;28;20302;-32
2023/03/10 12:22:45;;;;;;;;;;;;;;;20.15;51.29;98857.81;5052475;28;19935;-33
2023/03/10 12:25:29;;;;;;;;;;;;;;;20.07;51.32;98853.94;5052007;28;19913;-32
2023/03/10 12:28:09;;;;;;;;;;;;;;;19.57;51.17;98859.50;5052052;28;19974;-34
2023/03/10 12:30:57;;;;;;;;;;;;;;;19.71;51.29;98862.16;5052191;28;19923;-33
2023/03/10 12:33:41;;;;;;;;;;;;;;;19.48;51.90;98859.44;5051480;28;19970;-33
2023/03/10 12:36:21;;;;;;;;;;;;;;;19.24;51.96;98854.31;5051988;28;19913;-35
2023/03/10 12:38:58;;;;;;;;;;;;;;;19.27;50.93;98854.50;5052144;28;19962;-32
2023/03/10 12:41:29;;;;;;;;;;;;;;;19.30;52.60;98860.41;5051175;28;19923;-35
2023/03/10 12:43:57;;;;;;;;;;;;;;;19.50;51.97;98849.13;5051675;28;19927;-34
2023/03/10 12:46:25;;;;;;;;;;;;;;;19.66;51.63;98842.22;5051570;28;19919;-33
2023/03/10 12:49:11;;;;;;;;;;;;;;;19.62;51.97;98843.94;5051045;28;19962;-34
2023/03/10 12:51:43;;;;;;;;;;;;;;;19.35;52.06;98841.34;5050619;28;19913;-33